sensor_id;sensor_type;location;lat;lon;timestamp;pressure;altitude;pressure_sealevel;temperature
18474;BMP180;30265;52.408;13.500;2023-02-01T00:00:12;101426.00;;;9.70
18474;BMP180;30265;52.408;13.500;2023-02-01T00:10:44;101431.00;;;10.00
18474;BMP180;30265;52.408;13.500;2023-02-01T00:21:07;101416.00;;;9.70
18474;BMP180;30265;52.408;13.500;2023-02-01T00:31:33;101439.00;;;9.90
18474;BMP180;30265;52.408;13.500;2023-02-01T00:42:27;101453.00;;;10.10
18474;BMP180;30265;52.408;13.500;2023-02-01T00:52:51;101456.00;;;9.90
18474;BMP180;30265;52.408;13.500;2023-02-01T01:03:14;101455.00;;;9.60
18474;BMP180;30265;52.408;13.500;2023-02-01T01:13:46;101456.00;;;9.60
18474;BMP180;30265;52.408;13.500;2023-02-01T01:24:11;101446.00;;;9.60
18474;BMP180;30265;52.408;13.500;2023-02-01T01:34:39;101431.00;;;9.50
18474;BMP180;30265;52.408;13.500;2023-02-01T01:45:22;101408.00;;;9.80
18474;BMP180;30265;52.408;13.500;2023-02-01T01:56:20;101398.00;;;9.80
18474;BMP180;30265;52.408;13.500;2023-02-01T02:07:09;101390.00;;;9.90
18474;BMP180;30265;52.408;13.500;2023-02-01T02:17:47;101385.00;;;10.00
18474;BMP180;30265;52.408;13.500;2023-02-01T02:28:30;101386.00;;;10.00
18474;BMP180;30265;52.408;13.500;2023-02-01T02:39:00;101396.00;;;9.80
18474;BMP180;30265;52.408;13.500;2023-02-01T02:49:29;101393.00;;;9.80
18474;BMP180;30265;52.408;13.500;2023-02-01T02:59:58;101389.00;;;9.80
18474;BMP180;30265;52.408;13.500;2023-02-01T03:10:45;101383.00;;;9.90
18474;BMP180;30265;52.408;13.500;2023-02-01T03:21:17;101367.00;;;9.90
18474;BMP180;30265;52.408;13.500;2023-02-01T03:32:12;101334.00;;;9.90
18474;BMP180;30265;52.408;13.500;2023-02-01T03:42:53;101329.00;;;9.90
18474;BMP180;30265;52.408;13.500;2023-02-01T03:53:18;101334.00;;;9.80
18474;BMP180;30265;52.408;13.500;2023-02-01T04:03:43;101327.00;;;9.90
18474;BMP180;30265;52.408;13.500;2023-02-01T04:14:08;101327.00;;;10.00
18474;BMP180;30265;52.408;13.500;2023-02-01T04:24:34;101316.00;;;10.00
18474;BMP180;30265;52.408;13.500;2023-02-01T04:34:56;101331.00;;;10.10
18474;BMP180;30265;52.408;13.500;2023-02-01T04:45:27;101332.00;;;10.20
18474;BMP180;30265;52.408;13.500;2023-02-01T04:55:51;101316.00;;;10.40
18474;BMP180;30265;52.408;13.500;2023-02-01T05:06:27;101292.00;;;10.40
18474;BMP180;30265;52.408;13.500;2023-02-01T05:16:48;101261.00;;;10.50
18474;BMP180;30265;52.408;13.500;2023-02-01T05:27:13;101283.00;;;10.40
18474;BMP180;30265;52.408;13.500;2023-02-01T05:37:38;101270.00;;;10.40
18474;BMP180;30265;52.408;13.500;2023-02-01T05:48:10;101258.00;;;10.40
18474;BMP180;30265;52.408;13.500;2023-02-01T05:58:49;101265.00;;;10.40
18474;BMP180;30265;52.408;13.500;2023-02-01T06:09:12;101240.00;;;10.40
18474;BMP180;30265;52.408;13.500;2023-02-01T06:19:36;101257.00;;;10.30
18474;BMP180;30265;52.408;13.500;2023-02-01T06:30:45;101249.00;;;10.20
18474;BMP180;30265;52.408;13.500;2023-02-01T06:41:27;101231.00;;;10.10
18474;BMP180;30265;52.408;13.500;2023-02-01T06:52:09;101239.00;;;10.10
18474;BMP180;30265;52.408;13.500;2023-02-01T07:02:32;101232.00;;;10.10
18474;BMP180;30265;52.408;13.500;2023-02-01T07:12:57;101207.00;;;10.20
18474;BMP180;30265;52.408;13.500;2023-02-01T07:23:23;101201.00;;;10.30
18474;BMP180;30265;52.408;13.500;2023-02-01T07:33:47;101186.00;;;10.10
18474;BMP180;30265;52.408;13.500;2023-02-01T07:44:09;101171.00;;;10.20
18474;BMP180;30265;52.408;13.500;2023-02-01T07:54:48;101176.00;;;9.90
18474;BMP180;30265;52.408;13.500;2023-02-01T08:05:38;101161.00;;;9.40
18474;BMP180;30265;52.408;13.500;2023-02-01T08:16:44;101178.00;;;9.10
18474;BMP180;30265;52.408;13.500;2023-02-01T08:27:43;101183.00;;;9.00
18474;BMP180;30265;52.408;13.500;2023-02-01T08:38:46;101191.00;;;9.00
18474;BMP180;30265;52.408;13.500;2023-02-01T08:49:26;101184.00;;;9.10
18474;BMP180;30265;52.408;13.500;2023-02-01T09:00:07;101187.00;;;9.20
18474;BMP180;30265;52.408;13.500;2023-02-01T09:10:31;101197.00;;;9.20
18474;BMP180;30265;52.408;13.500;2023-02-01T09:20:59;101227.00;;;9.20
18474;BMP180;30265;52.408;13.500;2023-02-01T09:31:21;101240.00;;;9.30
18474;BMP180;30265;52.408;13.500;2023-02-01T09:53:02;101257.00;;;9.40
18474;BMP180;30265;52.408;13.500;2023-02-01T10:03:34;101272.00;;;9.40
18474;BMP180;30265;52.408;13.500;2023-02-01T10:14:30;101265.00;;;9.30
18474;BMP180;30265;52.408;13.500;2023-02-01T10:25:23;101299.00;;;9.30
18474;BMP180;30265;52.408;13.500;2023-02-01T10:36:15;101271.00;;;9.70
18474;BMP180;30265;52.408;13.500;2023-02-01T10:46:42;101296.00;;;9.70
18474;BMP180;30265;52.408;13.500;2023-02-01T10:57:21;101297.00;;;9.40
18474;BMP180;30265;52.408;13.500;2023-02-01T11:08:12;101285.00;;;9.60
18474;BMP180;30265;52.408;13.500;2023-02-01T11:18:43;101266.00;;;9.90
18474;BMP180;30265;52.408;13.500;2023-02-01T11:29:34;101250.00;;;10.30
18474;BMP180;30265;52.408;13.500;2023-02-01T11:40:34;101228.00;;;10.50
18474;BMP180;30265;52.408;13.500;2023-02-01T11:51:44;101201.00;;;10.90
18474;BMP180;30265;52.408;13.500;2023-02-01T12:03:03;101199.00;;;11.00
18474;BMP180;30265;52.408;13.500;2023-02-01T12:13:45;101173.00;;;11.20
18474;BMP180;30265;52.408;13.500;2023-02-01T12:24:48;101167.00;;;11.30
18474;BMP180;30265;52.408;13.500;2023-02-01T12:35:49;101130.00;;;11.40
18474;BMP180;30265;52.408;13.500;2023-02-01T12:46:22;101131.00;;;11.40
18474;BMP180;30265;52.408;13.500;2023-02-01T12:57:03;101110.00;;;11.50
18474;BMP180;30265;52.408;13.500;2023-02-01T13:07:53;101081.00;;;11.40
18474;BMP180;30265;52.408;13.500;2023-02-01T13:18:19;101103.00;;;11.40
18474;BMP180;30265;52.408;13.500;2023-02-01T13:28:45;101125.00;;;11.40
18474;BMP180;30265;52.408;13.500;2023-02-01T13:39:28;101117.00;;;11.30
18474;BMP180;30265;52.408;13.500;2023-02-01T13:49:58;101091.00;;;11.40
18474;BMP180;30265;52.408;13.500;2023-02-01T14:00:25;101072.00;;;11.40
18474;BMP180;30265;52.408;13.500;2023-02-01T14:10:50;101068.00;;;11.40
18474;BMP180;30265;52.408;13.500;2023-02-01T14:21:18;101033.00;;;11.40
18474;BMP180;30265;52.408;13.500;2023-02-01T14:31:52;101035.00;;;11.40
18474;BMP180;30265;52.408;13.500;2023-02-01T14:42:20;101013.00;;;11.40
18474;BMP180;30265;52.408;13.500;2023-02-01T14:52:47;101002.00;;;11.60
18474;BMP180;30265;52.408;13.500;2023-02-01T15:03:34;100984.00;;;11.50
18474;BMP180;30265;52.408;13.500;2023-02-01T15:13:58;100980.00;;;11.30
18474;BMP180;30265;52.408;13.500;2023-02-01T15:24:25;101013.00;;;10.30
18474;BMP180;30265;52.408;13.500;2023-02-01T15:34:49;101017.00;;;9.60
18474;BMP180;30265;52.408;13.500;2023-02-01T15:45:22;101017.00;;;9.20
18474;BMP180;30265;52.408;13.500;2023-02-01T15:55:58;101007.00;;;9.00
18474;BMP180;30265;52.408;13.500;2023-02-01T16:06:29;101029.00;;;8.90
18474;BMP180;30265;52.408;13.500;2023-02-01T16:17:07;101091.00;;;8.30
18474;BMP180;30265;52.408;13.500;2023-02-01T16:27:29;101115.00;;;7.60
18474;BMP180;30265;52.408;13.500;2023-02-01T16:37:55;101091.00;;;7.50
18474;BMP180;30265;52.408;13.500;2023-02-01T16:48:20;101105.00;;;7.80
18474;BMP180;30265;52.408;13.500;2023-02-01T17:09:36;101124.00;;;8.10
18474;BMP180;30265;52.408;13.500;2023-02-01T17:20:30;101124.00;;;8.20
18474;BMP180;30265;52.408;13.500;2023-02-01T17:30:55;101134.00;;;8.40
18474;BMP180;30265;52.408;13.500;2023-02-01T17:41:17;101140.00;;;8.60
18474;BMP180;30265;52.408;13.500;2023-02-01T17:51:45;101140.00;;;8.80
18474;BMP180;30265;52.408;13.500;2023-02-01T18:02:16;101140.00;;;9.00
18474;BMP180;30265;52.408;13.500;2023-02-01T18:24:02;101164.00;;;9.00
18474;BMP180;30265;52.408;13.500;2023-02-01T18:34:45;101161.00;;;9.10
18474;BMP180;30265;52.408;13.500;2023-02-01T18:45:23;101163.00;;;9.20
18474;BMP180;30265;52.408;13.500;2023-02-01T18:56:05;101158.00;;;9.30
18474;BMP180;30265;52.408;13.500;2023-02-01T19:06:38;101149.00;;;9.30
18474;BMP180;30265;52.408;13.500;2023-02-01T19:17:39;101164.00;;;9.30
18474;BMP180;30265;52.408;13.500;2023-02-01T19:28:18;101166.00;;;9.40
18474;BMP180;30265;52.408;13.500;2023-02-01T19:39:50;101184.00;;;9.40
18474;BMP180;30265;52.408;13.500;2023-02-01T19:50:21;101188.00;;;9.60
18474;BMP180;30265;52.408;13.500;2023-02-01T20:00:44;101182.00;;;9.60
18474;BMP180;30265;52.408;13.500;2023-02-01T20:11:08;101175.00;;;9.70
18474;BMP180;30265;52.408;13.500;2023-02-01T20:21:32;101210.00;;;9.50
18474;BMP180;30265;52.408;13.500;2023-02-01T20:32:07;101192.00;;;9.30
18474;BMP180;30265;52.408;13.500;2023-02-01T20:42:35;101212.00;;;9.30
18474;BMP180;30265;52.408;13.500;2023-02-01T20:52:57;101220.00;;;9.30
18474;BMP180;30265;52.408;13.500;2023-02-01T21:03:33;101214.00;;;9.30
18474;BMP180;30265;52.408;13.500;2023-02-01T21:13:56;101241.00;;;9.20
18474;BMP180;30265;52.408;13.500;2023-02-01T21:24:19;101233.00;;;9.20
18474;BMP180;30265;52.408;13.500;2023-02-01T21:34:44;101235.00;;;9.10
18474;BMP180;30265;52.408;13.500;2023-02-01T21:45:08;101238.00;;;9.00
18474;BMP180;30265;52.408;13.500;2023-02-01T21:55:33;101239.00;;;9.00
18474;BMP180;30265;52.408;13.500;2023-02-01T22:06:02;101250.00;;;9.00
18474;BMP180;30265;52.408;13.500;2023-02-01T22:16:26;101237.00;;;9.00
18474;BMP180;30265;52.408;13.500;2023-02-01T22:26:58;101248.00;;;9.20
18474;BMP180;30265;52.408;13.500;2023-02-01T22:37:35;101242.00;;;9.10
18474;BMP180;30265;52.408;13.500;2023-02-01T22:47:59;101244.00;;;9.40
18474;BMP180;30265;52.408;13.500;2023-02-01T22:58:22;101214.00;;;9.30
18474;BMP180;30265;52.408;13.500;2023-02-01T23:08:44;101221.00;;;9.30
18474;BMP180;30265;52.408;13.500;2023-02-01T23:19:08;101213.00;;;9.30
18474;BMP180;30265;52.408;13.500;2023-02-01T23:29:30;101195.00;;;9.30
18474;BMP180;30265;52.408;13.500;2023-02-01T23:39:56;101173.00;;;9.30
18474;BMP180;30265;52.408;13.500;2023-02-01T23:50:21;101154.00;;;9.60
